Portada
METAR-TAF:

METAR-TAF

Aeropuertos :

Aeropuerto Internacional de Baréin

Baréin, Bahréin

latitud: 26-16N, longitud: 050-39E, altitud: 2 m

Observación

El informe se hizo hace 39 minutos, a las 14:30 UTC
Viento 8 kt del noreste
Temperatura 27°C
Humedad 37%
Presión 1012 hPa
Visibilidad 10 km o más
sin nubes por debajo de 1500 m y sin presencia de cumulonimbus.

METAR: OBBI 011430Z 05008KT CAVOK 27/11 Q1012 NOSIG

Hora: 18:09 (15:09 UTC)

Pronóstico

El informe se hizo hace 4 horas y 9 minutos, a las 11:00 UTC
Pronóstico válido del 01 a las 12 UTC al 02 a las 18 UTC
Viento 5 kt con dirección variable
Visibilidad 10 km o más
sin nubes por debajo de 1500 m y sin presencia de cumulonimbus.
Evolucionando progresivamente
del 01 a las 14 UTC al 01 a las 16 UTC
Viento 12 kt del este-sureste

TAF: OBBI 011100Z 0112/0218 VRB05KT CAVOK BECMG 0114/0116 12012KT

Observaciones y pronósticos meteorológicos de más de 4000 aeropuertos (mensajes METAR y TAF).

Los puntos amarillos y rojos representan las estaciones disponibles.

Ponga el ratón en el punto deseado para ver el nombre de la estación.

Haga clic para ver las observaciones y los pronósticos meteorológicos.

Para cambiar el mapa : haga clic en los botones verdes con una cruz de color negro para hacer un zoom, en el botón verde con un guión para alejar o en las flechas verdes para mapas adyacentes.


METAR-TAF: